sensor_id;sensor_type;location;lat;lon;timestamp;pressure;altitude;pressure_sealevel;temperature;humidity
60061;BME280;45933;51.336;12.612;2023-04-20T00:02:05;100202.16;;;8.02;59.32
60061;BME280;45933;51.336;12.612;2023-04-20T00:04:31;100202.13;;;8.01;59.03
60061;BME280;45933;51.336;12.612;2023-04-20T00:06:56;100205.59;;;8.00;59.28
60061;BME280;45933;51.336;12.612;2023-04-20T00:09:22;100203.84;;;7.99;59.02
60061;BME280;45933;51.336;12.612;2023-04-20T00:11:48;100209.06;;;7.99;59.21
60061;BME280;45933;51.336;12.612;2023-04-20T00:14:14;100196.06;;;7.99;59.68
60061;BME280;45933;51.336;12.612;2023-04-20T00:16:40;100193.47;;;7.99;59.69
60061;BME280;45933;51.336;12.612;2023-04-20T00:19:05;100192.59;;;7.98;58.92
60061;BME280;45933;51.336;12.612;2023-04-20T00:21:32;100189.16;;;7.99;59.37
60061;BME280;45933;51.336;12.612;2023-04-20T00:23:57;100181.38;;;7.98;59.41
60061;BME280;45933;51.336;12.612;2023-04-20T00:26:22;100183.09;;;7.99;58.80
60061;BME280;45933;51.336;12.612;2023-04-20T00:28:49;100178.75;;;7.99;59.29
60061;BME280;45933;51.336;12.612;2023-04-20T00:31:15;100178.75;;;7.98;59.49
60061;BME280;45933;51.336;12.612;2023-04-20T00:33:41;100177.03;;;7.98;59.24
60061;BME280;45933;51.336;12.612;2023-04-20T00:36:06;100177.91;;;7.97;59.36
60061;BME280;45933;51.336;12.612;2023-04-20T00:38:32;100177.03;;;7.97;59.12
60061;BME280;45933;51.336;12.612;2023-04-20T00:40:57;100176.16;;;7.98;59.19
60061;BME280;45933;51.336;12.612;2023-04-20T00:43:23;100173.56;;;7.96;59.33
60061;BME280;45933;51.336;12.612;2023-04-20T00:45:48;100179.63;;;7.97;59.31
60061;BME280;45933;51.336;12.612;2023-04-20T00:48:16;100171.84;;;7.97;59.58
60061;BME280;45933;51.336;12.612;2023-04-20T00:50:41;100181.38;;;7.96;59.61
60061;BME280;45933;51.336;12.612;2023-04-20T00:53:07;100183.91;;;7.95;59.62
60061;BME280;45933;51.336;12.612;2023-04-20T00:55:33;100176.13;;;7.95;59.66
60061;BME280;45933;51.336;12.612;2023-04-20T00:58:00;100178.72;;;7.93;59.58
60061;BME280;45933;51.336;12.612;2023-04-20T01:00:26;100173.50;;;7.89;59.72
60061;BME280;45933;51.336;12.612;2023-04-20T01:02:51;100175.28;;;7.91;59.97
60061;BME280;45933;51.336;12.612;2023-04-20T01:05:17;100176.97;;;7.89;59.63
60061;BME280;45933;51.336;12.612;2023-04-20T01:07:42;100180.44;;;7.90;59.64
60061;BME280;45933;51.336;12.612;2023-04-20T01:10:08;100172.63;;;7.88;60.14
60061;BME280;45933;51.336;12.612;2023-04-20T01:12:34;100170.88;;;7.85;60.30
60061;BME280;45933;51.336;12.612;2023-04-20T01:15:04;100164.84;;;7.86;59.88
60061;BME280;45933;51.336;12.612;2023-04-20T01:17:30;100162.25;;;7.86;60.09
60061;BME280;45933;51.336;12.612;2023-04-20T01:19:57;100163.09;;;7.85;59.77
60061;BME280;45933;51.336;12.612;2023-04-20T01:22:24;100153.59;;;7.86;59.80
60061;BME280;45933;51.336;12.612;2023-04-20T01:24:50;100160.50;;;7.85;60.20
60061;BME280;45933;51.336;12.612;2023-04-20T01:27:15;100156.16;;;7.84;59.95
60061;BME280;45933;51.336;12.612;2023-04-20T01:29:42;100155.31;;;7.85;60.44
60061;BME280;45933;51.336;12.612;2023-04-20T01:32:08;100163.09;;;7.85;60.39
60061;BME280;45933;51.336;12.612;2023-04-20T01:34:33;100157.91;;;7.82;60.64
60061;BME280;45933;51.336;12.612;2023-04-20T01:36:59;100157.03;;;7.83;60.37
60061;BME280;45933;51.336;12.612;2023-04-20T01:39:24;100153.56;;;7.83;60.46
60061;BME280;45933;51.336;12.612;2023-04-20T01:41:50;100163.09;;;7.82;60.61
60061;BME280;45933;51.336;12.612;2023-04-20T01:44:16;100159.63;;;7.82;60.88
60061;BME280;45933;51.336;12.612;2023-04-20T01:46:41;100151.81;;;7.79;60.73
60061;BME280;45933;51.336;12.612;2023-04-20T01:49:07;100155.31;;;7.81;60.81
60061;BME280;45933;51.336;12.612;2023-04-20T01:51:33;100146.66;;;7.80;61.26
60061;BME280;45933;51.336;12.612;2023-04-20T01:53:59;100153.53;;;7.80;60.77
60061;BME280;45933;51.336;12.612;2023-04-20T01:56:25;100152.69;;;7.79;60.59
60061;BME280;45933;51.336;12.612;2023-04-20T01:58:50;100157.88;;;7.79;60.94
60061;BME280;45933;51.336;12.612;2023-04-20T02:01:16;100155.25;;;7.79;60.94
60061;BME280;45933;51.336;12.612;2023-04-20T02:03:41;100157.88;;;7.79;60.83
60061;BME280;45933;51.336;12.612;2023-04-20T02:06:07;100155.25;;;7.79;60.52
60061;BME280;45933;51.336;12.612;2023-04-20T02:08:32;100157.00;;;7.79;61.29
60061;BME280;45933;51.336;12.612;2023-04-20T02:10:57;100156.13;;;7.80;61.60
60061;BME280;45933;51.336;12.612;2023-04-20T02:13:23;100145.75;;;7.80;60.82
60061;BME280;45933;51.336;12.612;2023-04-20T02:15:48;100151.84;;;7.80;60.89
60061;BME280;45933;51.336;12.612;2023-04-20T02:18:13;100148.38;;;7.81;61.09
60061;BME280;45933;51.336;12.612;2023-04-20T02:20:41;100150.06;;;7.79;60.67
60061;BME280;45933;51.336;12.612;2023-04-20T02:23:07;100151.81;;;7.76;60.91
60061;BME280;45933;51.336;12.612;2023-04-20T02:25:32;100153.53;;;7.77;60.39
60061;BME280;45933;51.336;12.612;2023-04-20T02:27:57;100152.66;;;7.76;60.82
60061;BME280;45933;51.336;12.612;2023-04-20T02:30:23;100154.38;;;7.74;60.24
60061;BME280;45933;51.336;12.612;2023-04-20T02:32:48;100155.22;;;7.72;60.82
60061;BME280;45933;51.336;12.612;2023-04-20T02:35:13;100156.09;;;7.71;60.71
60061;BME280;45933;51.336;12.612;2023-04-20T02:37:39;100159.53;;;7.70;60.60
60061;BME280;45933;51.336;12.612;2023-04-20T02:40:05;100168.16;;;7.69;60.65
60061;BME280;45933;51.336;12.612;2023-04-20T02:42:31;100165.56;;;7.66;60.92
60061;BME280;45933;51.336;12.612;2023-04-20T02:44:56;100162.09;;;7.67;60.70
60061;BME280;45933;51.336;12.612;2023-04-20T02:47:21;100162.97;;;7.67;60.80
60061;BME280;45933;51.336;12.612;2023-04-20T02:49:47;100159.50;;;7.67;60.42
60061;BME280;45933;51.336;12.612;2023-04-20T02:52:12;100160.38;;;7.67;60.52
60061;BME280;45933;51.336;12.612;2023-04-20T02:54:37;100153.47;;;7.65;60.58
60061;BME280;45933;51.336;12.612;2023-04-20T02:57:03;100149.09;;;7.64;60.67
60061;BME280;45933;51.336;12.612;2023-04-20T02:59:28;100156.06;;;7.65;60.45
60061;BME280;45933;51.336;12.612;2023-04-20T03:01:53;100147.38;;;7.61;60.93
60061;BME280;45933;51.336;12.612;2023-04-20T03:04:18;100156.03;;;7.63;60.78
60061;BME280;45933;51.336;12.612;2023-04-20T03:06:45;100152.56;;;7.61;60.87
60061;BME280;45933;51.336;12.612;2023-04-20T03:09:10;100147.38;;;7.63;60.62
60061;BME280;45933;51.336;12.612;2023-04-20T03:11:35;100146.50;;;7.62;60.80
60061;BME280;45933;51.336;12.612;2023-04-20T03:14:00;100143.91;;;7.62;61.04
60061;BME280;45933;51.336;12.612;2023-04-20T03:16:26;100143.03;;;7.62;60.82
60061;BME280;45933;51.336;12.612;2023-04-20T03:18:51;100138.72;;;7.60;60.91
60061;BME280;45933;51.336;12.612;2023-04-20T03:21:16;100143.03;;;7.60;60.77
60061;BME280;45933;51.336;12.612;2023-04-20T03:23:42;100143.00;;;7.55;61.11
60061;BME280;45933;51.336;12.612;2023-04-20T03:26:07;100145.59;;;7.55;61.11
60061;BME280;45933;51.336;12.612;2023-04-20T03:28:32;100146.44;;;7.53;61.02
60061;BME280;45933;51.336;12.612;2023-04-20T03:30:58;100152.47;;;7.52;60.71
60061;BME280;45933;51.336;12.612;2023-04-20T03:33:25;100155.06;;;7.49;61.18
60061;BME280;45933;51.336;12.612;2023-04-20T03:35:51;100154.16;;;7.45;61.63
60061;BME280;45933;51.336;12.612;2023-04-20T03:38:17;100147.22;;;7.43;61.58
60061;BME280;45933;51.336;12.612;2023-04-20T03:40:42;100145.53;;;7.45;61.52
60061;BME280;45933;51.336;12.612;2023-04-20T03:43:07;100145.47;;;7.42;61.69
60061;BME280;45933;51.336;12.612;2023-04-20T03:45:32;100145.47;;;7.40;61.34
60061;BME280;45933;51.336;12.612;2023-04-20T03:47:58;100150.63;;;7.37;60.82
60061;BME280;45933;51.336;12.612;2023-04-20T03:50:23;100152.34;;;7.37;61.34
60061;BME280;45933;51.336;12.612;2023-04-20T03:52:49;100153.16;;;7.32;61.01
60061;BME280;45933;51.336;12.612;2023-04-20T03:55:14;100155.75;;;7.31;61.24
60061;BME280;45933;51.336;12.612;2023-04-20T03:57:39;100155.75;;;7.29;61.23
60061;BME280;45933;51.336;12.612;2023-04-20T04:00:05;100149.66;;;7.26;61.12
60061;BME280;45933;51.336;12.612;2023-04-20T04:02:30;100144.47;;;7.23;61.47
60061;BME280;45933;51.336;12.612;2023-04-20T04:04:56;100153.94;;;7.21;61.52
60061;BME280;45933;51.336;12.612;2023-04-20T04:07:24;100151.34;;;7.18;61.20
60061;BME280;45933;51.336;12.612;2023-04-20T04:09:49;100156.47;;;7.13;61.28
60061;BME280;45933;51.336;12.612;2023-04-20T04:12:15;100145.19;;;7.10;60.61
60061;BME280;45933;51.336;12.612;2023-04-20T04:14:41;100149.47;;;7.04;60.79
60061;BME280;45933;51.336;12.612;2023-04-20T04:17:07;100151.16;;;7.01;61.23
60061;BME280;45933;51.336;12.612;2023-04-20T04:19:32;100153.72;;;6.96;61.08
60061;BME280;45933;51.336;12.612;2023-04-20T04:21:58;100163.19;;;6.94;61.59
60061;BME280;45933;51.336;12.612;2023-04-20T04:24:23;100163.19;;;6.93;62.21
60061;BME280;45933;51.336;12.612;2023-04-20T04:26:48;100158.00;;;6.91;62.04
60061;BME280;45933;51.336;12.612;2023-04-20T04:29:13;100159.72;;;6.92;62.58
60061;BME280;45933;51.336;12.612;2023-04-20T04:31:39;100170.09;;;6.92;62.53
60061;BME280;45933;51.336;12.612;2023-04-20T04:34:05;100169.22;;;6.95;63.05
60061;BME280;45933;51.336;12.612;2023-04-20T04:36:30;100172.69;;;6.95;63.29
60061;BME280;45933;51.336;12.612;2023-04-20T04:38:56;100170.16;;;6.98;63.34
60061;BME280;45933;51.336;12.612;2023-04-20T04:41:21;100168.44;;;7.00;63.00
60061;BME280;45933;51.336;12.612;2023-04-20T04:43:47;100179.66;;;7.01;63.18
60061;BME280;45933;51.336;12.612;2023-04-20T04:46:13;100177.97;;;7.04;63.53
60061;BME280;45933;51.336;12.612;2023-04-20T04:48:39;100180.56;;;7.06;63.06
60061;BME280;45933;51.336;12.612;2023-04-20T04:51:08;100184.94;;;7.07;63.35
60061;BME280;45933;51.336;12.612;2023-04-20T04:53:33;100187.53;;;7.12;63.38
60061;BME280;45933;51.336;12.612;2023-04-20T04:55:59;100189.25;;;7.10;63.34
60061;BME280;45933;51.336;12.612;2023-04-20T04:58:24;100188.44;;;7.15;63.43
60061;BME280;45933;51.336;12.612;2023-04-20T05:00:50;100192.72;;;7.12;63.44
60061;BME280;45933;51.336;12.612;2023-04-20T05:03:15;100187.63;;;7.18;63.28
60061;BME280;45933;51.336;12.612;2023-04-20T05:05:41;100195.41;;;7.19;63.48
60061;BME280;45933;51.336;12.612;2023-04-20T05:08:06;100197.16;;;7.22;63.08
60061;BME280;45933;51.336;12.612;2023-04-20T05:10:31;100199.78;;;7.23;63.22
60061;BME280;45933;51.336;12.612;2023-04-20T05:12:57;100193.75;;;7.27;63.10
60061;BME280;45933;51.336;12.612;2023-04-20T05:15:25;100196.34;;;7.27;63.25
60061;BME280;45933;51.336;12.612;2023-04-20T05:17:51;100203.28;;;7.30;63.16
60061;BME280;45933;51.336;12.612;2023-04-20T05:20:16;100201.56;;;7.32;62.87
60061;BME280;45933;51.336;12.612;2023-04-20T05:22:42;100209.34;;;7.30;62.99
60061;BME280;45933;51.336;12.612;2023-04-20T05:25:08;100207.63;;;7.32;62.67
60061;BME280;45933;51.336;12.612;2023-04-20T05:27:33;100202.44;;;7.32;62.54
60061;BME280;45933;51.336;12.612;2023-04-20T05:29:58;100211.13;;;7.34;62.62
60061;BME280;45933;51.336;12.612;2023-04-20T05:32:24;100209.34;;;7.32;62.71
60061;BME280;45933;51.336;12.612;2023-04-20T05:34:49;100216.25;;;7.28;62.99
60061;BME280;45933;51.336;12.612;2023-04-20T05:37:15;100219.72;;;7.32;62.78
60061;BME280;45933;51.336;12.612;2023-04-20T05:39:40;100220.59;;;7.31;62.62
60061;BME280;45933;51.336;12.612;2023-04-20T05:42:06;100225.78;;;7.31;62.74
60061;BME280;45933;51.336;12.612;2023-04-20T05:44:31;100227.47;;;7.27;62.77
60061;BME280;45933;51.336;12.612;2023-04-20T05:46:58;100235.22;;;7.27;62.60
60061;BME280;45933;51.336;12.612;2023-04-20T05:49:23;100240.41;;;7.24;62.74
60061;BME280;45933;51.336;12.612;2023-04-20T05:51:49;100246.50;;;7.28;62.78
60061;BME280;45933;51.336;12.612;2023-04-20T05:54:15;100244.78;;;7.30;63.55
60061;BME280;45933;51.336;12.612;2023-04-20T05:56:40;100248.25;;;7.32;62.99
60061;BME280;45933;51.336;12.612;2023-04-20T05:59:06;100260.41;;;7.38;62.65
60061;BME280;45933;51.336;12.612;2023-04-20T06:01:31;100263.00;;;7.38;62.24
60061;BME280;45933;51.336;12.612;2023-04-20T06:03:56;100259.59;;;7.39;61.65
60061;BME280;45933;51.336;12.612;2023-04-20T06:06:22;100253.50;;;7.37;61.72
60061;BME280;45933;51.336;12.612;2023-04-20T06:08:47;100252.66;;;7.41;61.48
60061;BME280;45933;51.336;12.612;2023-04-20T06:11:15;100260.47;;;7.42;61.71
60061;BME280;45933;51.336;12.612;2023-04-20T06:13:40;100264.78;;;7.42;61.27
60061;BME280;45933;51.336;12.612;2023-04-20T06:16:05;100262.13;;;7.37;61.48
60061;BME280;45933;51.336;12.612;2023-04-20T06:18:33;100267.34;;;7.39;61.42
60061;BME280;45933;51.336;12.612;2023-04-20T06:20:59;100258.72;;;7.40;61.38
60061;BME280;45933;51.336;12.612;2023-04-20T06:23:25;100258.63;;;7.30;61.19
60061;BME280;45933;51.336;12.612;2023-04-20T06:25:51;100262.06;;;7.29;61.15
60061;BME280;45933;51.336;12.612;2023-04-20T06:28:16;100261.16;;;7.27;60.97
60061;BME280;45933;51.336;12.612;2023-04-20T06:30:41;100257.69;;;7.27;61.03
60061;BME280;45933;51.336;12.612;2023-04-20T06:33:07;100270.66;;;7.24;61.09
60061;BME280;45933;51.336;12.612;2023-04-20T06:35:32;100268.03;;;7.22;60.49
60061;BME280;45933;51.336;12.612;2023-04-20T06:37:58;100273.25;;;7.25;60.38
60061;BME280;45933;51.336;12.612;2023-04-20T06:40:26;100269.81;;;7.26;60.95
60061;BME280;45933;51.336;12.612;2023-04-20T06:42:52;100279.28;;;7.23;61.34
60061;BME280;45933;51.336;12.612;2023-04-20T06:45:17;100263.75;;;7.27;60.91
60061;BME280;45933;51.336;12.612;2023-04-20T06:47:43;100271.53;;;7.26;60.66
60061;BME280;45933;51.336;12.612;2023-04-20T06:50:08;100266.34;;;7.23;61.20
60061;BME280;45933;51.336;12.612;2023-04-20T06:52:40;100269.84;;;7.31;60.65
60061;BME280;45933;51.336;12.612;2023-04-20T06:55:06;100273.31;;;7.28;60.73
60061;BME280;45933;51.336;12.612;2023-04-20T06:57:32;100273.34;;;7.33;61.55
60061;BME280;45933;51.336;12.612;2023-04-20T06:59:57;100266.34;;;7.26;60.82
60061;BME280;45933;51.336;12.612;2023-04-20T07:02:23;100270.84;;;7.42;61.68
60061;BME280;45933;51.336;12.612;2023-04-20T07:04:48;100270.94;;;7.51;61.35
60061;BME280;45933;51.336;12.612;2023-04-20T07:07:13;100273.63;;;7.64;61.71
60061;BME280;45933;51.336;12.612;2023-04-20T07:09:39;100270.25;;;7.72;61.48
60061;BME280;45933;51.336;12.612;2023-04-20T07:12:04;100272.09;;;7.85;60.96
60061;BME280;45933;51.336;12.612;2023-04-20T07:14:29;100265.25;;;7.92;60.43
60061;BME280;45933;51.336;12.612;2023-04-20T07:16:55;100258.44;;;8.08;60.61
60061;BME280;45933;51.336;12.612;2023-04-20T07:19:20;100260.25;;;8.20;59.59
60061;BME280;45933;51.336;12.612;2023-04-20T07:21:45;100255.13;;;8.29;59.35
60061;BME280;45933;51.336;12.612;2023-04-20T07:24:11;100264.78;;;8.44;59.36
60061;BME280;45933;51.336;12.612;2023-04-20T07:26:36;100261.34;;;8.49;59.00
60061;BME280;45933;51.336;12.612;2023-04-20T07:29:02;100253.63;;;8.60;59.01
60061;BME280;45933;51.336;12.612;2023-04-20T07:31:27;100260.47;;;8.52;58.25
60061;BME280;45933;51.336;12.612;2023-04-20T07:33:53;100254.50;;;8.65;57.87
60061;BME280;45933;51.336;12.612;2023-04-20T07:36:18;100260.66;;;8.81;59.46
60061;BME280;45933;51.336;12.612;2023-04-20T07:38:45;100260.66;;;8.87;58.35
60061;BME280;45933;51.336;12.612;2023-04-20T07:41:11;100265.91;;;8.98;57.89
60061;BME280;45933;51.336;12.612;2023-04-20T07:43:36;100267.69;;;9.09;59.09
60061;BME280;45933;51.336;12.612;2023-04-20T07:46:03;100262.50;;;9.20;58.54
60061;BME280;45933;51.336;12.612;2023-04-20T07:48:28;100271.19;;;9.33;58.73
60061;BME280;45933;51.336;12.612;2023-04-20T07:50:53;100265.13;;;9.38;58.31
60061;BME280;45933;51.336;12.612;2023-04-20T07:53:19;100273.84;;;9.51;57.57
60061;BME280;45933;51.336;12.612;2023-04-20T07:55:44;100265.22;;;9.60;57.83
60061;BME280;45933;51.336;12.612;2023-04-20T07:58:09;100274.75;;;9.75;57.79
60061;BME280;45933;51.336;12.612;2023-04-20T08:00:36;100270.41;;;9.78;57.29
60061;BME280;45933;51.336;12.612;2023-04-20T08:03:01;100277.34;;;9.84;56.90
60061;BME280;45933;51.336;12.612;2023-04-20T08:05:26;100265.22;;;9.89;55.61
60061;BME280;45933;51.336;12.612;2023-04-20T08:07:51;100268.69;;;9.97;55.84
60061;BME280;45933;51.336;12.612;2023-04-20T08:10:17;100254.81;;;9.98;54.96
60061;BME280;45933;51.336;12.612;2023-04-20T08:12:42;100253.91;;;10.22;57.32
60061;BME280;45933;51.336;12.612;2023-04-20T08:15:08;100253.88;;;10.43;57.24
60061;BME280;45933;51.336;12.612;2023-04-20T08:17:34;100247.72;;;10.77;56.47
60061;BME280;45933;51.336;12.612;2023-04-20T08:19:59;100249.28;;;11.14;56.79
60061;BME280;45933;51.336;12.612;2023-04-20T08:22:25;100249.97;;;11.45;54.38
60061;BME280;45933;51.336;12.612;2023-04-20T08:24:55;100240.13;;;11.79;54.28
60061;BME280;45933;51.336;12.612;2023-04-20T08:27:20;100249.50;;;12.10;53.22
60061;BME280;45933;51.336;12.612;2023-04-20T08:29:45;100248.28;;;12.43;53.76
60061;BME280;45933;51.336;12.612;2023-04-20T08:32:11;100246.41;;;12.57;52.15
60061;BME280;45933;51.336;12.612;2023-04-20T08:34:38;100250.47;;;12.82;50.48
60061;BME280;45933;51.336;12.612;2023-04-20T08:37:03;100253.00;;;12.89;49.38
60061;BME280;45933;51.336;12.612;2023-04-20T08:39:29;100252.16;;;12.88;49.33
60061;BME280;45933;51.336;12.612;2023-04-20T08:41:55;100258.34;;;12.79;49.56
60061;BME280;45933;51.336;12.612;2023-04-20T08:44:22;100254.16;;;12.66;48.74
60061;BME280;45933;51.336;12.612;2023-04-20T08:46:48;100250.81;;;12.52;49.62
60061;BME280;45933;51.336;12.612;2023-04-20T08:49:17;100240.25;;;12.60;49.64
60061;BME280;45933;51.336;12.612;2023-04-20T08:51:43;100242.03;;;12.61;50.88
60061;BME280;45933;51.336;12.612;2023-04-20T08:54:10;100237.53;;;12.72;50.48
60061;BME280;45933;51.336;12.612;2023-04-20T08:56:44;100238.06;;;12.98;50.58
60061;BME280;45933;51.336;12.612;2023-04-20T08:59:10;100243.09;;;13.14;49.71
60061;BME280;45933;51.336;12.612;2023-04-20T09:01:37;100244.59;;;13.34;49.61
60061;BME280;45933;51.336;12.612;2023-04-20T09:04:22;100250.38;;;13.55;49.23
60061;BME280;45933;51.336;12.612;2023-04-20T09:06:52;100255.25;;;13.79;49.58
60061;BME280;45933;51.336;12.612;2023-04-20T09:09:18;100248.81;;;13.97;48.81
60061;BME280;45933;51.336;12.612;2023-04-20T09:11:44;100246.03;;;14.09;48.19
60061;BME280;45933;51.336;12.612;2023-04-20T09:14:11;100251.78;;;14.30;47.19
60061;BME280;45933;51.336;12.612;2023-04-20T09:16:47;100245.34;;;14.48;47.15
60061;BME280;45933;51.336;12.612;2023-04-20T09:19:14;100249.50;;;14.59;46.53
60061;BME280;45933;51.336;12.612;2023-04-20T09:21:47;100253.19;;;14.49;45.73
60061;BME280;45933;51.336;12.612;2023-04-20T09:24:14;100261.03;;;14.49;44.61
60061;BME280;45933;51.336;12.612;2023-04-20T09:26:40;100265.59;;;14.39;44.50
60061;BME280;45933;51.336;12.612;2023-04-20T09:29:21;100260.63;;;14.24;43.71
60061;BME280;45933;51.336;12.612;2023-04-20T09:31:47;100265.34;;;14.04;44.82
60061;BME280;45933;51.336;12.612;2023-04-20T09:34:13;100264.84;;;13.82;46.18
60061;BME280;45933;51.336;12.612;2023-04-20T09:36:41;100263.28;;;13.69;45.38
60061;BME280;45933;51.336;12.612;2023-04-20T09:39:08;100252.06;;;13.59;46.50
60061;BME280;45933;51.336;12.612;2023-04-20T09:41:34;100263.41;;;13.59;46.97
60061;BME280;45933;51.336;12.612;2023-04-20T09:44:01;100258.16;;;13.61;46.66
60061;BME280;45933;51.336;12.612;2023-04-20T09:46:31;100251.09;;;13.65;46.74
60061;BME280;45933;51.336;12.612;2023-04-20T09:48:58;100250.31;;;13.59;45.55
60061;BME280;45933;51.336;12.612;2023-04-20T09:51:28;100251.84;;;13.74;46.15
60061;BME280;45933;51.336;12.612;2023-04-20T09:53:55;100256.91;;;13.85;46.53
60061;BME280;45933;51.336;12.612;2023-04-20T09:56:21;100267.34;;;13.86;46.60
60061;BME280;45933;51.336;12.612;2023-04-20T09:58:46;100267.28;;;13.91;46.27
60061;BME280;45933;51.336;12.612;2023-04-20T10:01:11;100252.41;;;13.92;46.19
60061;BME280;45933;51.336;12.612;2023-04-20T10:03:40;100247.94;;;14.00;45.81
60061;BME280;45933;51.336;12.612;2023-04-20T10:06:26;100255.56;;;14.13;46.93
60061;BME280;45933;51.336;12.612;2023-04-20T10:08:55;100253.81;;;14.12;46.76
60061;BME280;45933;51.336;12.612;2023-04-20T10:11:36;100249.16;;;14.30;46.75
60061;BME280;45933;51.336;12.612;2023-04-20T10:14:19;100254.94;;;14.50;46.86
60061;BME280;45933;51.336;12.612;2023-04-20T10:16:56;100241.47;;;14.67;45.82
60061;BME280;45933;51.336;12.612;2023-04-20T10:19:22;100249.69;;;14.94;47.71
60061;BME280;45933;51.336;12.612;2023-04-20T10:21:49;100247.59;;;15.09;45.49
60061;BME280;45933;51.336;12.612;2023-04-20T10:24:27;100251.38;;;15.36;45.45
60061;BME280;45933;51.336;12.612;2023-04-20T10:26:52;100246.78;;;15.46;43.44
60061;BME280;45933;51.336;12.612;2023-04-20T10:29:25;100248.66;;;15.41;42.96
60061;BME280;45933;51.336;12.612;2023-04-20T10:31:51;100248.63;;;15.42;43.10
60061;BME280;45933;51.336;12.612;2023-04-20T10:34:28;100248.72;;;15.38;42.11
60061;BME280;45933;51.336;12.612;2023-04-20T10:36:54;100244.09;;;15.10;42.89
60061;BME280;45933;51.336;12.612;2023-04-20T10:39:19;100238.13;;;15.02;42.91
60061;BME280;45933;51.336;12.612;2023-04-20T10:41:53;100238.50;;;14.84;43.10
60061;BME280;45933;51.336;12.612;2023-04-20T10:44:20;100232.72;;;14.68;43.72
60061;BME280;45933;51.336;12.612;2023-04-20T10:46:52;100217.31;;;14.51;43.79
60061;BME280;45933;51.336;12.612;2023-04-20T10:49:17;100224.53;;;14.37;44.47
60061;BME280;45933;51.336;12.612;2023-04-20T10:51:49;100219.41;;;14.31;44.56
60061;BME280;45933;51.336;12.612;2023-04-20T10:54:16;100218.88;;;14.13;45.74
60061;BME280;45933;51.336;12.612;2023-04-20T10:56:42;100218.28;;;13.96;46.62
60061;BME280;45933;51.336;12.612;2023-04-20T10:59:09;100214.94;;;13.86;47.07
60061;BME280;45933;51.336;12.612;2023-04-20T11:01:35;100218.63;;;13.76;47.82
60061;BME280;45933;51.336;12.612;2023-04-20T11:04:01;100210.09;;;13.64;47.92
60061;BME280;45933;51.336;12.612;2023-04-20T11:06:26;100216.31;;;13.56;48.49
60061;BME280;45933;51.336;12.612;2023-04-20T11:08:52;100207.78;;;13.44;48.07
60061;BME280;45933;51.336;12.612;2023-04-20T11:11:21;100217.44;;;13.40;47.50
60061;BME280;45933;51.336;12.612;2023-04-20T11:14:13;100210.63;;;13.30;47.44
60061;BME280;45933;51.336;12.612;2023-04-20T11:16:38;100201.16;;;13.18;46.82
60061;BME280;45933;51.336;12.612;2023-04-20T11:19:04;100203.09;;;13.04;47.50
60061;BME280;45933;51.336;12.612;2023-04-20T11:21:40;100203.13;;;13.02;47.58
60061;BME280;45933;51.336;12.612;2023-04-20T11:24:20;100199.72;;;12.97;47.90
60061;BME280;45933;51.336;12.612;2023-04-20T11:26:45;100198.25;;;12.76;47.41
60061;BME280;45933;51.336;12.612;2023-04-20T11:31:53;100200.19;;;12.57;48.83
60061;BME280;45933;51.336;12.612;2023-04-20T11:34:18;100202.91;;;12.48;48.48
60061;BME280;45933;51.336;12.612;2023-04-20T11:36:44;100207.41;;;12.37;48.74
60061;BME280;45933;51.336;12.612;2023-04-20T11:39:10;100207.50;;;12.28;49.53
60061;BME280;45933;51.336;12.612;2023-04-20T11:41:38;100205.84;;;12.18;49.56
60061;BME280;45933;51.336;12.612;2023-04-20T11:44:04;100205.94;;;12.10;50.05
60061;BME280;45933;51.336;12.612;2023-04-20T11:46:33;100207.75;;;12.05;49.72
60061;BME280;45933;51.336;12.612;2023-04-20T11:48:59;100204.31;;;11.98;50.92
60061;BME280;45933;51.336;12.612;2023-04-20T11:51:26;100200.94;;;11.86;50.39
60061;BME280;45933;51.336;12.612;2023-04-20T11:53:52;100200.97;;;11.81;50.46
60061;BME280;45933;51.336;12.612;2023-04-20T11:56:17;100196.66;;;11.77;50.82
60061;BME280;45933;51.336;12.612;2023-04-20T11:58:43;100201.09;;;11.67;51.62
60061;BME280;45933;51.336;12.612;2023-04-20T12:01:08;100202.03;;;11.60;51.50
60061;BME280;45933;51.336;12.612;2023-04-20T12:03:34;100199.44;;;11.54;52.16
60061;BME280;45933;51.336;12.612;2023-04-20T12:05:59;100202.97;;;11.50;52.09
60061;BME280;45933;51.336;12.612;2023-04-20T12:08:24;100196.88;;;11.46;51.97
60061;BME280;45933;51.336;12.612;2023-04-20T12:10:50;100191.69;;;11.42;52.72
60061;BME280;45933;51.336;12.612;2023-04-20T12:13:15;100189.13;;;11.37;53.21
60061;BME280;45933;51.336;12.612;2023-04-20T12:15:41;100188.28;;;11.34;53.82
60061;BME280;45933;51.336;12.612;2023-04-20T12:18:06;100171.72;;;11.36;53.47
60061;BME280;45933;51.336;12.612;2023-04-20T12:20:31;100176.94;;;11.38;53.83
60061;BME280;45933;51.336;12.612;2023-04-20T12:22:57;100180.41;;;11.40;54.23
60061;BME280;45933;51.336;12.612;2023-04-20T12:25:22;100177.75;;;11.43;53.53
60061;BME280;45933;51.336;12.612;2023-04-20T12:27:47;100183.84;;;11.43;54.15
60061;BME280;45933;51.336;12.612;2023-04-20T12:30:13;100180.38;;;11.46;54.75
60061;BME280;45933;51.336;12.612;2023-04-20T12:32:40;100183.81;;;11.49;54.17
60061;BME280;45933;51.336;12.612;2023-04-20T12:35:06;100179.41;;;11.55;53.89
60061;BME280;45933;51.336;12.612;2023-04-20T12:37:32;100180.22;;;11.60;54.27
60061;BME280;45933;51.336;12.612;2023-04-20T12:39:57;100174.97;;;11.64;53.89
60061;BME280;45933;51.336;12.612;2023-04-20T12:42:23;100174.97;;;11.64;53.39
60061;BME280;45933;51.336;12.612;2023-04-20T12:44:51;100174.97;;;11.64;53.72